sensor_id;sensor_type;location;lat;lon;timestamp;pressure;altitude;pressure_sealevel;temperature;humidity
35989;BME280;22064;42.672;23.282;2023-12-20T00:01:50;95025.69;;;8.52;78.46
35989;BME280;22064;42.672;23.282;2023-12-20T00:04:15;95021.97;;;8.48;80.32
35989;BME280;22064;42.672;23.282;2023-12-20T00:06:41;95014.97;;;8.49;80.05
35989;BME280;22064;42.672;23.282;2023-12-20T00:09:07;95008.66;;;8.56;79.19
35989;BME280;22064;42.672;23.282;2023-12-20T00:11:33;94997.97;;;8.65;78.74
35989;BME280;22064;42.672;23.282;2023-12-20T00:13:59;94998.41;;;8.92;75.17
35989;BME280;22064;42.672;23.282;2023-12-20T00:16:25;94997.53;;;8.68;73.98
35989;BME280;22064;42.672;23.282;2023-12-20T00:18:51;95009.09;;;8.53;74.64
35989;BME280;22064;42.672;23.282;2023-12-20T00:21:17;94998.44;;;8.25;77.50
35989;BME280;22064;42.672;23.282;2023-12-20T00:23:43;94990.28;;;8.58;75.02
35989;BME280;22064;42.672;23.282;2023-12-20T00:26:09;94990.38;;;8.93;71.64
35989;BME280;22064;42.672;23.282;2023-12-20T00:28:35;94981.16;;;8.97;70.19
35989;BME280;22064;42.672;23.282;2023-12-20T00:31:01;94958.91;;;9.01;68.57
35989;BME280;22064;42.672;23.282;2023-12-20T00:33:27;94976.91;;;8.85;68.19
35989;BME280;22064;42.672;23.282;2023-12-20T00:35:53;94970.19;;;8.95;67.57
35989;BME280;22064;42.672;23.282;2023-12-20T00:38:19;94962.97;;;8.97;66.82
35989;BME280;22064;42.672;23.282;2023-12-20T00:40:45;94952.44;;;8.92;67.15
35989;BME280;22064;42.672;23.282;2023-12-20T00:43:11;94967.53;;;8.72;67.65
35989;BME280;22064;42.672;23.282;2023-12-20T00:45:37;94963.75;;;8.56;68.52
35989;BME280;22064;42.672;23.282;2023-12-20T00:48:03;94963.44;;;8.64;68.45
35989;BME280;22064;42.672;23.282;2023-12-20T00:50:29;94954.09;;;8.75;67.67
35989;BME280;22064;42.672;23.282;2023-12-20T00:52:55;94958.31;;;8.76;67.08
35989;BME280;22064;42.672;23.282;2023-12-20T00:55:21;94958.56;;;8.98;67.08
35989;BME280;22064;42.672;23.282;2023-12-20T00:57:47;94955.88;;;8.63;67.47
35989;BME280;22064;42.672;23.282;2023-12-20T01:00:13;94950.81;;;8.68;68.49
35989;BME280;22064;42.672;23.282;2023-12-20T01:02:39;94955.94;;;8.86;68.35
35989;BME280;22064;42.672;23.282;2023-12-20T01:05:06;94943.19;;;8.96;67.10
35989;BME280;22064;42.672;23.282;2023-12-20T01:07:33;94936.56;;;9.00;65.55
35989;BME280;22064;42.672;23.282;2023-12-20T01:09:58;94923.13;;;9.04;65.00
35989;BME280;22064;42.672;23.282;2023-12-20T01:12:24;94922.53;;;9.01;64.98
35989;BME280;22064;42.672;23.282;2023-12-20T01:14:50;94923.78;;;9.11;63.91
35989;BME280;22064;42.672;23.282;2023-12-20T01:17:16;94934.19;;;9.11;62.79
35989;BME280;22064;42.672;23.282;2023-12-20T01:19:42;94923.13;;;9.04;62.10
35989;BME280;22064;42.672;23.282;2023-12-20T01:22:08;94929.53;;;8.89;61.97
35989;BME280;22064;42.672;23.282;2023-12-20T01:24:34;94931.59;;;8.27;64.13
35989;BME280;22064;42.672;23.282;2023-12-20T01:26:59;94921.47;;;8.37;64.52
35989;BME280;22064;42.672;23.282;2023-12-20T01:29:25;94902.91;;;7.36;72.51
35989;BME280;22064;42.672;23.282;2023-12-20T01:31:51;94916.50;;;8.05;72.00
35989;BME280;22064;42.672;23.282;2023-12-20T01:34:17;94914.56;;;8.01;71.77
35989;BME280;22064;42.672;23.282;2023-12-20T01:36:43;94911.63;;;7.79;71.68
35989;BME280;22064;42.672;23.282;2023-12-20T01:39:10;94895.75;;;8.05;71.23
35989;BME280;22064;42.672;23.282;2023-12-20T01:41:36;94899.53;;;8.21;69.29
35989;BME280;22064;42.672;23.282;2023-12-20T01:44:02;94887.13;;;8.53;67.00
35989;BME280;22064;42.672;23.282;2023-12-20T01:46:27;94882.13;;;8.40;66.26
35989;BME280;22064;42.672;23.282;2023-12-20T01:48:54;94883.19;;;8.63;64.50
35989;BME280;22064;42.672;23.282;2023-12-20T01:51:20;94885.78;;;8.63;63.52
35989;BME280;22064;42.672;23.282;2023-12-20T01:53:46;94873.19;;;8.66;63.39
35989;BME280;22064;42.672;23.282;2023-12-20T01:56:13;94869.22;;;8.64;63.02
35989;BME280;22064;42.672;23.282;2023-12-20T01:58:43;94858.56;;;8.53;62.92
35989;BME280;22064;42.672;23.282;2023-12-20T02:01:10;94878.56;;;8.65;62.38
35989;BME280;22064;42.672;23.282;2023-12-20T02:03:36;94866.13;;;8.43;63.75
35989;BME280;22064;42.672;23.282;2023-12-20T02:06:03;94861.63;;;8.50;62.99
35989;BME280;22064;42.672;23.282;2023-12-20T02:08:29;94860.19;;;8.66;61.60
35989;BME280;22064;42.672;23.282;2023-12-20T02:10:56;94862.75;;;8.43;61.76
35989;BME280;22064;42.672;23.282;2023-12-20T02:13:22;94864.72;;;7.99;64.96
35989;BME280;22064;42.672;23.282;2023-12-20T02:15:48;94860.69;;;7.54;67.20
35989;BME280;22064;42.672;23.282;2023-12-20T02:18:14;94852.03;;;7.60;67.97
35989;BME280;22064;42.672;23.282;2023-12-20T02:20:42;94860.69;;;7.36;71.51
35989;BME280;22064;42.672;23.282;2023-12-20T02:23:08;94856.66;;;7.40;72.27
35989;BME280;22064;42.672;23.282;2023-12-20T02:25:34;94851.53;;;7.15;75.58
35989;BME280;22064;42.672;23.282;2023-12-20T02:28:01;94847.56;;;7.12;77.51
35989;BME280;22064;42.672;23.282;2023-12-20T02:30:27;94847.38;;;7.14;76.63
35989;BME280;22064;42.672;23.282;2023-12-20T02:32:53;94838.22;;;7.11;76.81
35989;BME280;22064;42.672;23.282;2023-12-20T02:35:19;94841.34;;;7.38;75.14
35989;BME280;22064;42.672;23.282;2023-12-20T02:37:45;94831.75;;;7.21;74.59
35989;BME280;22064;42.672;23.282;2023-12-20T02:40:11;94824.16;;;7.56;72.90
35989;BME280;22064;42.672;23.282;2023-12-20T02:42:37;94814.75;;;7.43;71.23
35989;BME280;22064;42.672;23.282;2023-12-20T02:45:03;94829.38;;;7.19;72.00
35989;BME280;22064;42.672;23.282;2023-12-20T02:47:28;94833.22;;;6.91;74.93
35989;BME280;22064;42.672;23.282;2023-12-20T02:49:55;94832.25;;;6.67;78.50
35989;BME280;22064;42.672;23.282;2023-12-20T02:52:23;94820.38;;;6.35;81.38
35989;BME280;22064;42.672;23.282;2023-12-20T02:54:49;94821.91;;;6.42;84.33
35989;BME280;22064;42.672;23.282;2023-12-20T02:57:15;94836.81;;;6.90;79.84
35989;BME280;22064;42.672;23.282;2023-12-20T02:59:41;94831.31;;;7.24;75.99
35989;BME280;22064;42.672;23.282;2023-12-20T03:02:07;94830.63;;;7.16;76.05
35989;BME280;22064;42.672;23.282;2023-12-20T03:04:33;94827.91;;;7.60;72.33
35989;BME280;22064;42.672;23.282;2023-12-20T03:06:58;94815.75;;;7.60;70.71
35989;BME280;22064;42.672;23.282;2023-12-20T03:09:24;94817.66;;;7.83;68.04
35989;BME280;22064;42.672;23.282;2023-12-20T03:11:50;94828.59;;;7.85;67.63
35989;BME280;22064;42.672;23.282;2023-12-20T03:14:16;94809.53;;;7.80;67.30
35989;BME280;22064;42.672;23.282;2023-12-20T03:16:42;94819.34;;;7.59;67.82
35989;BME280;22064;42.672;23.282;2023-12-20T03:19:12;94818.22;;;7.00;68.88
35989;BME280;22064;42.672;23.282;2023-12-20T03:21:37;94812.66;;;6.53;74.76
35989;BME280;22064;42.672;23.282;2023-12-20T03:24:03;94803.91;;;6.29;82.32
35989;BME280;22064;42.672;23.282;2023-12-20T03:26:29;94802.47;;;5.70;91.25
35989;BME280;22064;42.672;23.282;2023-12-20T03:28:55;94814.06;;;5.99;93.26
35989;BME280;22064;42.672;23.282;2023-12-20T03:31:21;94797.78;;;6.23;90.09
35989;BME280;22064;42.672;23.282;2023-12-20T03:33:47;94793.34;;;6.56;85.06
35989;BME280;22064;42.672;23.282;2023-12-20T03:36:13;94801.97;;;7.11;79.83
35989;BME280;22064;42.672;23.282;2023-12-20T03:38:39;94808.00;;;7.42;76.01
35989;BME280;22064;42.672;23.282;2023-12-20T03:41:07;94805.28;;;7.18;74.62
35989;BME280;22064;42.672;23.282;2023-12-20T03:43:33;94791.50;;;6.81;78.57
35989;BME280;22064;42.672;23.282;2023-12-20T03:45:59;94797.00;;;7.28;75.57
35989;BME280;22064;42.672;23.282;2023-12-20T03:48:25;94799.38;;;7.48;71.78
35989;BME280;22064;42.672;23.282;2023-12-20T03:50:51;94800.91;;;7.68;69.46
35989;BME280;22064;42.672;23.282;2023-12-20T03:53:17;94794.47;;;7.40;69.47
35989;BME280;22064;42.672;23.282;2023-12-20T03:55:43;94790.88;;;6.67;74.14
35989;BME280;22064;42.672;23.282;2023-12-20T03:58:09;94798.94;;;6.28;81.10
35989;BME280;22064;42.672;23.282;2023-12-20T04:00:35;94798.22;;;6.45;79.15
35989;BME280;22064;42.672;23.282;2023-12-20T04:03:00;94793.69;;;6.84;78.29
35989;BME280;22064;42.672;23.282;2023-12-20T04:05:27;94786.78;;;6.78;77.02
35989;BME280;22064;42.672;23.282;2023-12-20T04:07:52;94783.56;;;6.83;77.60
35989;BME280;22064;42.672;23.282;2023-12-20T04:10:18;94776.59;;;7.02;75.11
35989;BME280;22064;42.672;23.282;2023-12-20T04:12:44;94765.72;;;7.11;73.40
35989;BME280;22064;42.672;23.282;2023-12-20T04:15:10;94776.94;;;7.05;73.08
35989;BME280;22064;42.672;23.282;2023-12-20T04:17:37;94778.59;;;7.00;71.41
35989;BME280;22064;42.672;23.282;2023-12-20T04:20:04;94761.94;;;7.26;68.96
35989;BME280;22064;42.672;23.282;2023-12-20T04:22:30;94762.41;;;7.04;68.25
35989;BME280;22064;42.672;23.282;2023-12-20T04:24:56;94768.16;;;7.06;68.72
35989;BME280;22064;42.672;23.282;2023-12-20T04:27:21;94768.59;;;7.22;67.60
35989;BME280;22064;42.672;23.282;2023-12-20T04:29:47;94757.22;;;7.23;67.23
35989;BME280;22064;42.672;23.282;2023-12-20T04:32:13;94761.38;;;7.42;65.87
35989;BME280;22064;42.672;23.282;2023-12-20T04:34:39;94758.59;;;7.55;65.02
35989;BME280;22064;42.672;23.282;2023-12-20T04:37:05;94757.41;;;7.39;65.33
35989;BME280;22064;42.672;23.282;2023-12-20T04:39:31;94753.00;;;7.58;64.89
35989;BME280;22064;42.672;23.282;2023-12-20T04:41:56;94746.72;;;7.36;65.13
35989;BME280;22064;42.672;23.282;2023-12-20T04:44:22;94758.91;;;7.47;65.51
35989;BME280;22064;42.672;23.282;2023-12-20T04:46:49;94749.78;;;7.45;66.04
35989;BME280;22064;42.672;23.282;2023-12-20T04:49:14;94741.13;;;7.21;64.68
35989;BME280;22064;42.672;23.282;2023-12-20T04:51:40;94742.84;;;6.71;66.16
35989;BME280;22064;42.672;23.282;2023-12-20T04:54:06;94749.69;;;5.59;77.99
35989;BME280;22064;42.672;23.282;2023-12-20T04:56:32;94750.41;;;5.66;82.90
35989;BME280;22064;42.672;23.282;2023-12-20T04:58:58;94744.56;;;5.84;79.64
35989;BME280;22064;42.672;23.282;2023-12-20T05:01:24;94749.44;;;5.29;86.30
35989;BME280;22064;42.672;23.282;2023-12-20T05:03:50;94748.72;;;4.30;99.98
35989;BME280;22064;42.672;23.282;2023-12-20T05:06:16;94743.75;;;4.49;98.77
35989;BME280;22064;42.672;23.282;2023-12-20T05:08:42;94737.94;;;4.60;97.61
35989;BME280;22064;42.672;23.282;2023-12-20T05:11:08;94732.19;;;4.71;94.42
35989;BME280;22064;42.672;23.282;2023-12-20T05:13:34;94727.31;;;4.36;99.94
35989;BME280;22064;42.672;23.282;2023-12-20T05:16:00;94732.41;;;4.50;100.00
35989;BME280;22064;42.672;23.282;2023-12-20T05:18:26;94738.56;;;4.62;99.27
35989;BME280;22064;42.672;23.282;2023-12-20T05:20:52;94733.22;;;4.44;100.00
35989;BME280;22064;42.672;23.282;2023-12-20T05:23:18;94718.56;;;4.37;100.00
35989;BME280;22064;42.672;23.282;2023-12-20T05:25:45;94728.88;;;4.31;100.00
35989;BME280;22064;42.672;23.282;2023-12-20T05:28:11;94718.97;;;4.28;100.00
35989;BME280;22064;42.672;23.282;2023-12-20T05:30:37;94709.44;;;4.28;100.00
35989;BME280;22064;42.672;23.282;2023-12-20T05:33:03;94717.16;;;4.42;100.00
35989;BME280;22064;42.672;23.282;2023-12-20T05:35:30;94719.28;;;4.71;100.00
35989;BME280;22064;42.672;23.282;2023-12-20T05:37:56;94700.66;;;5.07;94.63
35989;BME280;22064;42.672;23.282;2023-12-20T05:40:22;94719.97;;;4.33;100.00
35989;BME280;22064;42.672;23.282;2023-12-20T05:42:48;94708.28;;;3.84;100.00
35989;BME280;22064;42.672;23.282;2023-12-20T05:45:14;94712.22;;;4.40;100.00
35989;BME280;22064;42.672;23.282;2023-12-20T05:47:40;94711.81;;;5.08;99.37
35989;BME280;22064;42.672;23.282;2023-12-20T05:50:06;94704.66;;;5.48;94.60
35989;BME280;22064;42.672;23.282;2023-12-20T05:52:32;94717.66;;;5.60;94.11
35989;BME280;22064;42.672;23.282;2023-12-20T05:54:58;94709.88;;;5.67;91.68
35989;BME280;22064;42.672;23.282;2023-12-20T05:57:27;94693.66;;;5.85;89.49
35989;BME280;22064;42.672;23.282;2023-12-20T05:59:53;94693.94;;;5.76;89.14
35989;BME280;22064;42.672;23.282;2023-12-20T06:02:19;94695.38;;;5.34;94.03
35989;BME280;22064;42.672;23.282;2023-12-20T06:04:45;94696.19;;;4.96;99.61
35989;BME280;22064;42.672;23.282;2023-12-20T06:07:12;94696.88;;;5.10;96.08
35989;BME280;22064;42.672;23.282;2023-12-20T06:09:39;94690.72;;;5.18;100.00
35989;BME280;22064;42.672;23.282;2023-12-20T06:12:04;94700.97;;;4.93;100.00
35989;BME280;22064;42.672;23.282;2023-12-20T06:14:31;94697.97;;;4.18;100.00
35989;BME280;22064;42.672;23.282;2023-12-20T06:16:57;94704.53;;;4.85;100.00
35989;BME280;22064;42.672;23.282;2023-12-20T06:19:23;94702.94;;;4.91;100.00
35989;BME280;22064;42.672;23.282;2023-12-20T06:21:49;94716.97;;;4.23;100.00
35989;BME280;22064;42.672;23.282;2023-12-20T06:24:15;94695.88;;;5.18;100.00
35989;BME280;22064;42.672;23.282;2023-12-20T06:26:41;94712.53;;;4.70;100.00
35989;BME280;22064;42.672;23.282;2023-12-20T06:29:07;94708.16;;;4.64;100.00
35989;BME280;22064;42.672;23.282;2023-12-20T06:31:33;94700.84;;;4.61;100.00
35989;BME280;22064;42.672;23.282;2023-12-20T06:33:59;94699.72;;;4.95;100.00
35989;BME280;22064;42.672;23.282;2023-12-20T06:36:28;94706.84;;;5.06;100.00
35989;BME280;22064;42.672;23.282;2023-12-20T06:38:53;94702.16;;;4.12;100.00
35989;BME280;22064;42.672;23.282;2023-12-20T06:41:19;94708.84;;;4.46;100.00
35989;BME280;22064;42.672;23.282;2023-12-20T06:43:45;94700.16;;;4.85;100.00
35989;BME280;22064;42.672;23.282;2023-12-20T06:46:11;94692.09;;;5.20;100.00
35989;BME280;22064;42.672;23.282;2023-12-20T06:48:39;94692.66;;;5.22;100.00
35989;BME280;22064;42.672;23.282;2023-12-20T06:51:05;94688.38;;;5.09;100.00
35989;BME280;22064;42.672;23.282;2023-12-20T06:53:31;94680.25;;;5.06;100.00
35989;BME280;22064;42.672;23.282;2023-12-20T06:55:57;94683.59;;;5.76;100.00
35989;BME280;22064;42.672;23.282;2023-12-20T06:58:23;94675.88;;;6.01;100.00
35989;BME280;22064;42.672;23.282;2023-12-20T07:00:50;94675.06;;;5.44;100.00
35989;BME280;22064;42.672;23.282;2023-12-20T07:03:17;94683.91;;;5.30;100.00
35989;BME280;22064;42.672;23.282;2023-12-20T07:05:43;94671.94;;;5.67;100.00
35989;BME280;22064;42.672;23.282;2023-12-20T07:08:09;94665.41;;;6.15;100.00
35989;BME280;22064;42.672;23.282;2023-12-20T07:10:35;94678.50;;;6.38;98.16
35989;BME280;22064;42.672;23.282;2023-12-20T07:13:02;94667.28;;;6.63;96.21
35989;BME280;22064;42.672;23.282;2023-12-20T07:15:28;94667.56;;;6.91;95.16
35989;BME280;22064;42.672;23.282;2023-12-20T07:17:55;94653.81;;;7.09;95.92
35989;BME280;22064;42.672;23.282;2023-12-20T07:20:21;94665.78;;;7.52;93.31
35989;BME280;22064;42.672;23.282;2023-12-20T07:22:46;94654.88;;;7.74;91.78
35989;BME280;22064;42.672;23.282;2023-12-20T07:25:12;94655.25;;;8.01;89.90
35989;BME280;22064;42.672;23.282;2023-12-20T07:27:38;94651.88;;;8.12;87.13
35989;BME280;22064;42.672;23.282;2023-12-20T07:30:05;94649.41;;;8.17;86.51
35989;BME280;22064;42.672;23.282;2023-12-20T07:32:31;94639.28;;;7.08;89.11
35989;BME280;22064;42.672;23.282;2023-12-20T07:34:58;94645.09;;;6.37;95.15
35989;BME280;22064;42.672;23.282;2023-12-20T07:37:23;94653.31;;;5.59;100.00
35989;BME280;22064;42.672;23.282;2023-12-20T07:39:49;94656.38;;;5.74;100.00
35989;BME280;22064;42.672;23.282;2023-12-20T07:42:15;94663.06;;;5.25;100.00
35989;BME280;22064;42.672;23.282;2023-12-20T07:44:41;94660.09;;;4.90;100.00
35989;BME280;22064;42.672;23.282;2023-12-20T07:47:07;94650.47;;;5.03;100.00
35989;BME280;22064;42.672;23.282;2023-12-20T07:49:33;94658.28;;;5.28;100.00
35989;BME280;22064;42.672;23.282;2023-12-20T07:51:59;94651.38;;;5.22;100.00
35989;BME280;22064;42.672;23.282;2023-12-20T07:54:25;94652.69;;;5.00;100.00
35989;BME280;22064;42.672;23.282;2023-12-20T07:56:51;94641.53;;;4.68;100.00
35989;BME280;22064;42.672;23.282;2023-12-20T07:59:17;94654.47;;;4.99;100.00
35989;BME280;22064;42.672;23.282;2023-12-20T08:01:43;94643.13;;;4.62;100.00
35989;BME280;22064;42.672;23.282;2023-12-20T08:04:08;94633.09;;;4.40;100.00
35989;BME280;22064;42.672;23.282;2023-12-20T08:06:34;94642.66;;;4.78;100.00
35989;BME280;22064;42.672;23.282;2023-12-20T08:09:00;94641.03;;;5.22;100.00
35989;BME280;22064;42.672;23.282;2023-12-20T08:11:26;94650.78;;;5.52;100.00
35989;BME280;22064;42.672;23.282;2023-12-20T08:13:52;94646.28;;;5.91;100.00
35989;BME280;22064;42.672;23.282;2023-12-20T08:16:18;94634.09;;;5.79;100.00
35989;BME280;22064;42.672;23.282;2023-12-20T08:18:44;94631.72;;;5.21;100.00
35989;BME280;22064;42.672;23.282;2023-12-20T08:21:10;94618.53;;;5.29;100.00
35989;BME280;22064;42.672;23.282;2023-12-20T08:23:37;94628.00;;;6.17;100.00
35989;BME280;22064;42.672;23.282;2023-12-20T08:26:07;94624.63;;;6.54;100.00
35989;BME280;22064;42.672;23.282;2023-12-20T08:28:34;94608.50;;;7.30;100.00
35989;BME280;22064;42.672;23.282;2023-12-20T08:31:02;94617.91;;;7.55;100.00
35989;BME280;22064;42.672;23.282;2023-12-20T08:33:28;94615.09;;;7.14;100.00
35989;BME280;22064;42.672;23.282;2023-12-20T08:35:54;94610.84;;;7.85;99.94
35989;BME280;22064;42.672;23.282;2023-12-20T08:38:19;94605.84;;;8.19;95.91
35989;BME280;22064;42.672;23.282;2023-12-20T08:40:46;94596.25;;;8.43;92.04
35989;BME280;22064;42.672;23.282;2023-12-20T08:43:11;94596.16;;;7.68;95.66
35989;BME280;22064;42.672;23.282;2023-12-20T08:45:38;94592.41;;;7.40;96.37
35989;BME280;22064;42.672;23.282;2023-12-20T08:48:04;94589.84;;;7.52;94.27
35989;BME280;22064;42.672;23.282;2023-12-20T08:50:30;94600.22;;;7.52;93.06
35989;BME280;22064;42.672;23.282;2023-12-20T08:52:56;94582.31;;;7.08;97.71
35989;BME280;22064;42.672;23.282;2023-12-20T08:55:22;94591.75;;;6.72;100.00
35989;BME280;22064;42.672;23.282;2023-12-20T08:57:48;94582.59;;;6.03;100.00
35989;BME280;22064;42.672;23.282;2023-12-20T09:00:14;94582.75;;;6.27;100.00
35989;BME280;22064;42.672;23.282;2023-12-20T09:02:41;94580.03;;;6.21;100.00
35989;BME280;22064;42.672;23.282;2023-12-20T09:05:07;94569.56;;;6.65;100.00
35989;BME280;22064;42.672;23.282;2023-12-20T09:07:33;94553.19;;;7.25;100.00
35989;BME280;22064;42.672;23.282;2023-12-20T09:09:59;94535.34;;;7.82;99.31
35989;BME280;22064;42.672;23.282;2023-12-20T09:12:26;94531.53;;;8.25;95.83
35989;BME280;22064;42.672;23.282;2023-12-20T09:14:52;94532.00;;;8.91;92.83
35989;BME280;22064;42.672;23.282;2023-12-20T09:17:18;94522.56;;;9.01;89.57
35989;BME280;22064;42.672;23.282;2023-12-20T09:19:45;94515.03;;;8.43;90.18
35989;BME280;22064;42.672;23.282;2023-12-20T09:22:11;94507.66;;;8.11;89.89
35989;BME280;22064;42.672;23.282;2023-12-20T09:24:37;94503.75;;;7.38;97.32
35989;BME280;22064;42.672;23.282;2023-12-20T09:27:07;94493.53;;;7.20;100.00
35989;BME280;22064;42.672;23.282;2023-12-20T09:29:33;94492.72;;;7.31;100.00
35989;BME280;22064;42.672;23.282;2023-12-20T09:31:59;94501.41;;;7.36;100.00
35989;BME280;22064;42.672;23.282;2023-12-20T09:34:26;94494.19;;;7.50;100.00
35989;BME280;22064;42.672;23.282;2023-12-20T09:36:52;94480.78;;;7.65;97.59
35989;BME280;22064;42.672;23.282;2023-12-20T09:39:19;94466.50;;;7.51;100.00
35989;BME280;22064;42.672;23.282;2023-12-20T09:41:57;94478.44;;;7.16;100.00
35989;BME280;22064;42.672;23.282;2023-12-20T09:44:23;94471.34;;;7.35;100.00
35989;BME280;22064;42.672;23.282;2023-12-20T09:46:50;94471.91;;;7.49;100.00
35989;BME280;22064;42.672;23.282;2023-12-20T09:49:18;94451.75;;;7.51;100.00
35989;BME280;22064;42.672;23.282;2023-12-20T09:51:46;94451.75;;;7.39;100.00
35989;BME280;22064;42.672;23.282;2023-12-20T09:54:14;94452.06;;;7.55;100.00
35989;BME280;22064;42.672;23.282;2023-12-20T09:56:41;94458.75;;;7.91;100.00
35989;BME280;22064;42.672;23.282;2023-12-20T09:59:07;94441.72;;;8.47;97.15
35989;BME280;22064;42.672;23.282;2023-12-20T10:01:34;94448.81;;;8.12;97.73
35989;BME280;22064;42.672;23.282;2023-12-20T10:04:01;94447.56;;;8.14;99.99
35989;BME280;22064;42.672;23.282;2023-12-20T10:06:32;94446.56;;;9.23;91.48
35989;BME280;22064;42.672;23.282;2023-12-20T10:08:58;94415.03;;;9.75;84.32
35989;BME280;22064;42.672;23.282;2023-12-20T10:11:24;94438.56;;;8.62;85.84
35989;BME280;22064;42.672;23.282;2023-12-20T10:13:51;94440.47;;;8.67;85.61
35989;BME280;22064;42.672;23.282;2023-12-20T10:16:16;94427.59;;;8.43;90.35
35989;BME280;22064;42.672;23.282;2023-12-20T10:18:42;94424.09;;;8.49;88.74
35989;BME280;22064;42.672;23.282;2023-12-20T10:21:08;94419.31;;;8.01;93.67
35989;BME280;22064;42.672;23.282;2023-12-20T10:23:35;94419.97;;;7.96;93.34
35989;BME280;22064;42.672;23.282;2023-12-20T10:26:02;94401.75;;;8.48;89.85
35989;BME280;22064;42.672;23.282;2023-12-20T10:28:33;94409.03;;;8.63;88.49
35989;BME280;22064;42.672;23.282;2023-12-20T10:30:59;94396.38;;;8.09;93.05
35989;BME280;22064;42.672;23.282;2023-12-20T10:33:27;94392.34;;;8.02;93.03
35989;BME280;22064;42.672;23.282;2023-12-20T10:35:55;94394.47;;;8.33;93.64
35989;BME280;22064;42.672;23.282;2023-12-20T10:38:21;94392.81;;;8.90;82.90
35989;BME280;22064;42.672;23.282;2023-12-20T10:40:48;94376.72;;;9.27;80.77
35989;BME280;22064;42.672;23.282;2023-12-20T10:43:15;94375.50;;;9.34;78.51
35989;BME280;22064;42.672;23.282;2023-12-20T10:45:44;94351.09;;;9.35;75.26
35989;BME280;22064;42.672;23.282;2023-12-20T10:48:11;94352.06;;;9.73;74.02
35989;BME280;22064;42.672;23.282;2023-12-20T10:50:40;94369.31;;;9.18;77.83
35989;BME280;22064;42.672;23.282;2023-12-20T10:53:07;94360.91;;;9.72;75.31
35989;BME280;22064;42.672;23.282;2023-12-20T10:55:33;94346.31;;;10.20;71.12
35989;BME280;22064;42.672;23.282;2023-12-20T10:58:09;94351.19;;;9.89;70.42
35989;BME280;22064;42.672;23.282;2023-12-20T11:00:40;94331.88;;;9.14;75.41
35989;BME280;22064;42.672;23.282;2023-12-20T11:03:09;94344.31;;;9.34;77.53
35989;BME280;22064;42.672;23.282;2023-12-20T11:05:49;94326.56;;;9.26;80.32
35989;BME280;22064;42.672;23.282;2023-12-20T11:08:19;94331.84;;;10.56;71.30
35989;BME280;22064;42.672;23.282;2023-12-20T11:13:32;94312.78;;;11.46;64.15
35989;BME280;22064;42.672;23.282;2023-12-20T11:16:00;94316.41;;;12.08;61.26
35989;BME280;22064;42.672;23.282;2023-12-20T11:18:30;94314.47;;;11.72;58.71
35989;BME280;22064;42.672;23.282;2023-12-20T11:21:00;94307.78;;;12.07;57.54
35989;BME280;22064;42.672;23.282;2023-12-20T11:23:29;94307.00;;;12.12;56.93
35989;BME280;22064;42.672;23.282;2023-12-20T11:25:56;94293.97;;;12.07;56.43
35989;BME280;22064;42.672;23.282;2023-12-20T11:28:27;94294.50;;;12.14;55.08
35989;BME280;22064;42.672;23.282;2023-12-20T11:30:54;94283.81;;;12.51;54.38
35989;BME280;22064;42.672;23.282;2023-12-20T11:33:30;94273.63;;;12.60;53.11
35989;BME280;22064;42.672;23.282;2023-12-20T11:35:57;94273.63;;;12.39;53.90
35989;BME280;22064;42.672;23.282;2023-12-20T11:38:25;94251.69;;;12.25;53.64
35989;BME280;22064;42.672;23.282;2023-12-20T11:40:53;94257.44;;;12.27;52.83
35989;BME280;22064;42.672;23.282;2023-12-20T11:43:39;94252.44;;;12.66;53.40
35989;BME280;22064;42.672;23.282;2023-12-20T11:46:09;94242.25;;;12.75;51.95
35989;BME280;22064;42.672;23.282;2023-12-20T11:48:38;94246.72;;;12.54;52.09
35989;BME280;22064;42.672;23.282;2023-12-20T11:51:11;94247.97;;;12.82;51.42
35989;BME280;22064;42.672;23.282;2023-12-20T11:53:37;94231.31;;;12.53;51.60
35989;BME280;22064;42.672;23.282;2023-12-20T11:56:06;94233.63;;;12.75;51.38
35989;BME280;22064;42.672;23.282;2023-12-20T11:58:33;94220.06;;;12.78;51.67
35989;BME280;22064;42.672;23.282;2023-12-20T12:00:59;94217.06;;;13.15;51.39
35989;BME280;22064;42.672;23.282;2023-12-20T12:03:25;94211.88;;;12.94;52.25
35989;BME280;22064;42.672;23.282;2023-12-20T12:05:51;94172.09;;;13.13;51.38
35989;BME280;22064;42.672;23.282;2023-12-20T12:08:17;94191.03;;;13.49;50.99
35989;BME280;22064;42.672;23.282;2023-12-20T12:10:45;94192.50;;;14.05;50.60
35989;BME280;22064;42.672;23.282;2023-12-20T12:13:11;94177.06;;;14.03;49.95
35989;BME280;22064;42.672;23.282;2023-12-20T12:15:37;94184.03;;;14.13;50.01
35989;BME280;22064;42.672;23.282;2023-12-20T12:18:04;94179.91;;;14.07;49.73
35989;BME280;22064;42.672;23.282;2023-12-20T12:20:31;94169.63;;;14.16;48.81
35989;BME280;22064;42.672;23.282;2023-12-20T12:23:04;94152.72;;;14.03;48.97
35989;BME280;22064;42.672;23.282;2023-12-20T12:25:32;94170.38;;;14.45;48.67
35989;BME280;22064;42.672;23.282;2023-12-20T12:27:58;94164.03;;;14.27;48.65
35989;BME280;22064;42.672;23.282;2023-12-20T12:30:24;94161.13;;;14.00;49.09
35989;BME280;22064;42.672;23.282;2023-12-20T12:32:55;94162.13;;;13.70;49.60
35989;BME280;22064;42.672;23.282;2023-12-20T12:35:22;94172.28;;;13.76;49.40
35989;BME280;22064;42.672;23.282;2023-12-20T12:37:48;94173.66;;;13.69;50.01
35989;BME280;22064;42.672;23.282;2023-12-20T12:40:15;94162.72;;;13.61;50.24
35989;BME280;22064;42.672;23.282;2023-12-20T12:42:43;94162.91;;;13.26;49.96
35989;BME280;22064;42.672;23.282;2023-12-20T12:45:10;94164.56;;;13.01;51.41
35989;BME280;22064;42.672;23.282;2023-12-20T12:47:37;94171.50;;;12.51;52.05
35989;BME280;22064;42.672;23.282;2023-12-20T12:50:04;94156.94;;;11.84;53.83
35989;BME280;22064;42.672;23.282;2023-12-20T12:52:30;94158.47;;;12.46;53.11
35989;BME280;22064;42.672;23.282;2023-12-20T12:54:56;94152.50;;;11.74;54.52